METAR Data
IDs: Format: Raw Decoded Include TAF

Data at: 0145 UTC 20 Jan 2022

RJOO 200100Z 30010KT 9999 VCSH FEW020 05/M01 Q1017